YOW weather

Ottawa Macdonald-Cartier International Airport
Ottawa, Ontario, Canada

Public forecast

Using degrees Celsius for public forecast. Weather courtesy of forecast.io.

Current aviation weather report (METAR) for Ottawa Macdonald-Cartier International Airport

Retrieved 2019/11/22 04:00 UTC (29 minutes ago):

CYOW 220400Z 09010KT 15SM OVC035 01/00 A2967 RMK SC8 SLP055

Aviation forecast (TAF) for Ottawa Macdonald-Cartier International Airport

Retrieved 2019-11-22 03:42 UTC (47 minutes ago):

TAF CYOW 220239Z 2203/2224 11012KT P6SM -RA BKN030 OVC070 TEMPO 2203/2206 4SM -RA BR SCT007 BKN020 OVC050 FM220600 17012KT 6SM -RA BR BKN020 OVC030 TEMPO 2206/2212 3SM -RA -DZ BR BKN007 OVC010 BECMG 2208/2210 20012KT FM221200 23015KT 3SM -RA BR OVC006 FM221500 26018G28KT 6SM -SHRA BR SCT009 OVC015 FM221700 28020G30KT P6SM -SHSN BKN025 FM222200 29018G28KT P6SM BKN030 BECMG 2222/2224 29015G25KT FEW030 RMK NXT FCST BY 220600Z